Time;durP1;ratioP1;P1;durP2;ratioP2;P2;SDS_P1;SDS_P2;PMS_P1;PMS_P2;Temp;Humidity;BMP_temperature;BMP_pressure;BME280_temperature;BME280_humidity;BME280_pressure;Samples;Min_cycle;Max_cycle;Signal;HPM_P1;HPM_P2
2022/09/06 00:00:07;;;;;;;6.97;3.58;;;18.70;99.90;;;;;;5074442;28;20185;-67
2022/09/06 00:02:34;;;;;;;9.63;4.05;;;18.80;99.90;;;;;;5075545;28;20335;-67
2022/09/06 00:05:00;;;;;;;6.65;3.60;;;18.80;99.90;;;;;;5074534;28;20638;-67
2022/09/06 00:07:26;;;;;;;10.63;4.18;;;18.90;99.90;;;;;;5093518;28;20205;-67
2022/09/06 00:09:51;;;;;;;8.35;3.85;;;18.90;99.90;;;;;;5096046;28;20173;-67
2022/09/06 00:12:17;;;;;;;7.03;3.72;;;18.90;99.90;;;;;;5095202;28;20218;-67
2022/09/06 00:14:43;;;;;;;5.00;3.40;;;18.90;99.90;;;;;;5095552;28;20184;-67
2022/09/06 00:17:09;;;;;;;5.60;3.60;;;18.90;99.90;;;;;;5095722;28;20199;-67
2022/09/06 00:19:34;;;;;;;6.00;3.80;;;18.90;99.90;;;;;;5095992;28;20260;-67
2022/09/06 00:22:00;;;;;;;9.90;4.00;;;18.80;99.90;;;;;;5096016;28;20200;-67
2022/09/06 00:24:26;;;;;;;6.07;3.58;;;18.70;99.90;;;;;;5094405;28;20637;-67
2022/09/06 00:26:52;;;;;;;5.22;3.53;;;18.70;99.90;;;;;;5092463;28;20622;-67
2022/09/06 00:29:18;;;;;;;5.70;3.30;;;18.70;99.90;;;;;;5075742;28;20642;-67
2022/09/06 00:31:43;;;;;;;6.60;3.58;;;18.70;99.90;;;;;;5075309;28;20550;-67
2022/09/06 00:34:09;;;;;;;7.32;3.88;;;18.70;99.90;;;;;;5074849;28;20673;-67
2022/09/06 00:36:35;;;;;;;4.78;3.35;;;18.60;99.90;;;;;;5085647;28;20552;-67
2022/09/06 00:39:01;;;;;;;6.25;3.33;;;18.60;99.90;;;;;;5093879;28;20166;-67
2022/09/06 00:41:26;;;;;;;7.95;3.50;;;18.50;99.90;;;;;;5093369;28;20189;-67
2022/09/06 00:43:53;;;;;;;5.38;3.60;;;18.50;99.90;;;;;;5095455;28;20161;-67
2022/09/06 00:46:22;;;;;;;5.85;3.80;;;18.50;99.90;;;;;;5094986;28;20633;-67
2022/09/06 00:48:52;;;;;;;7.20;3.47;;;18.50;99.90;;;;;;5094910;28;20177;-67
2022/09/06 00:51:21;;;;;;;5.88;3.60;;;18.50;99.90;;;;;;5093499;28;20161;-67
2022/09/06 00:53:48;;;;;;;7.90;3.50;;;18.50;99.90;;;;;;5093364;28;20255;-67
2022/09/06 00:56:14;;;;;;;6.60;3.38;;;18.50;99.90;;;;;;5094750;28;20652;-67
2022/09/06 00:58:40;;;;;;;5.15;3.78;;;18.50;99.90;;;;;;5076640;28;20190;-67
2022/09/06 01:01:06;;;;;;;6.65;3.90;;;18.40;99.90;;;;;;5074582;28;20173;-67
2022/09/06 01:03:33;;;;;;;6.47;4.00;;;18.40;99.90;;;;;;5072863;28;20233;-67
2022/09/06 01:06:17;;;;;;;7.13;3.70;;;18.40;99.90;;;;;;5079899;28;20216;-67
2022/09/06 01:08:45;;;;;;;5.65;3.60;;;18.40;99.90;;;;;;5094406;28;20258;-69
2022/09/06 01:11:47;;;;;;;6.35;3.83;;;18.40;99.90;;;;;;5094639;28;20633;-67
2022/09/06 01:14:47;;;;;;;8.20;3.70;;;18.40;99.90;;;;;;5094426;28;20242;-67
2022/09/06 01:17:50;;;;;;;4.65;3.63;;;18.30;99.90;;;;;;5094393;28;20188;-67
2022/09/06 01:20:22;;;;;;;10.70;3.88;;;18.20;99.90;;;;;;5075069;28;20207;-67
2022/09/06 01:23:14;;;;;;;6.82;4.05;;;18.10;99.90;;;;;;5093939;28;20252;-67
2022/09/06 01:26:02;;;;;;;5.03;3.28;;;18.10;99.90;;;;;;5094332;28;20157;-67
2022/09/06 01:28:45;;;;;;;7.65;4.15;;;18.10;99.90;;;;;;5077969;28;20259;-67
2022/09/06 01:31:32;;;;;;;4.43;3.47;;;18.20;99.90;;;;;;5074104;28;20165;-67
2022/09/06 01:34:19;;;;;;;8.55;4.10;;;18.20;99.90;;;;;;5074251;28;20547;-67
2022/09/06 01:36:56;;;;;;;5.75;3.95;;;18.20;99.90;;;;;;5085222;28;20591;-67
2022/09/06 01:39:28;;;;;;;7.55;4.25;;;18.10;99.90;;;;;;5093028;28;20176;-65
2022/09/06 01:41:57;;;;;;;12.85;4.38;;;17.90;99.90;;;;;;5093594;28;20201;-66
2022/09/06 01:44:26;;;;;;;5.20;3.63;;;17.60;99.90;;;;;;5093855;28;20218;-65
2022/09/06 01:47:00;;;;;;;5.95;4.30;;;17.70;99.90;;;;;;5094677;28;20181;-65
2022/09/06 01:49:25;;;;;;;6.93;4.18;;;17.80;99.90;;;;;;5094819;28;20185;-65
2022/09/06 01:52:07;;;;;;;9.10;4.32;;;17.90;99.90;;;;;;5094330;28;20591;-65
2022/09/06 01:54:51;;;;;;;5.82;3.50;;;18.00;99.90;;;;;;5094242;28;20157;-65
2022/09/06 01:57:20;;;;;;;6.28;4.10;;;18.20;99.90;;;;;;5087298;28;20205;-65
2022/09/06 01:59:52;;;;;;;6.32;4.00;;;18.30;99.90;;;;;;5073634;28;20596;-65
2022/09/06 02:02:35;;;;;;;5.80;3.75;;;18.40;99.90;;;;;;5073512;28;20289;-65
2022/09/06 02:05:09;;;;;;;5.80;3.65;;;18.40;99.90;;;;;;5072280;28;20162;-65
2022/09/06 02:07:37;;;;;;;6.85;3.80;;;18.50;99.90;;;;;;5092417;28;20283;-65
2022/09/06 02:10:12;;;;;;;7.97;3.58;;;18.60;99.90;;;;;;5093899;28;20192;-65
2022/09/06 02:12:42;;;;;;;4.43;3.50;;;18.70;99.90;;;;;;5093307;28;20189;-65
2022/09/06 02:15:20;;;;;;;6.15;3.83;;;18.80;99.90;;;;;;5093896;28;20169;-65
2022/09/06 02:17:58;;;;;;;9.52;3.80;;;18.90;99.90;;;;;;5093771;28;20241;-65
2022/09/06 02:20:29;;;;;;;7.28;3.95;;;18.90;99.90;;;;;;5093747;28;20168;-65
2022/09/06 02:22:59;;;;;;;4.85;3.70;;;18.90;99.90;;;;;;5092219;28;20207;-65
2022/09/06 02:25:31;;;;;;;4.43;3.67;;;19.00;99.90;;;;;;5093522;28;20310;-65
2022/09/06 02:27:57;;;;;;;4.63;3.40;;;19.00;99.90;;;;;;5081655;28;20225;-65
2022/09/06 02:30:23;;;;;;;4.60;3.53;;;19.00;99.90;;;;;;5073146;28;20209;-65
2022/09/06 02:33:04;;;;;;;6.07;3.78;;;19.00;99.90;;;;;;5071943;28;20722;-65
2022/09/06 02:35:30;;;;;;;6.75;3.80;;;19.00;99.90;;;;;;5073517;28;20276;-65
2022/09/06 02:37:56;;;;;;;3.70;3.40;;;18.90;99.90;;;;;;5092171;28;20259;-65
2022/09/06 02:40:23;;;;;;;6.28;3.42;;;18.90;99.90;;;;;;5091888;28;20656;-65
2022/09/06 02:42:48;;;;;;;5.55;3.35;;;19.00;99.90;;;;;;5092981;28;20197;-65
2022/09/06 02:45:14;;;;;;;6.43;3.10;;;19.00;99.90;;;;;;5093878;28;20176;-65
2022/09/06 02:47:40;;;;;;;5.07;3.72;;;19.00;99.90;;;;;;5093667;28;20193;-65
2022/09/06 02:50:07;;;;;;;7.90;3.70;;;18.90;99.90;;;;;;5093212;28;20542;-65
2022/09/06 02:52:33;;;;;;;6.15;3.85;;;18.90;99.90;;;;;;5093719;28;20252;-65
2022/09/06 02:54:58;;;;;;;5.82;3.35;;;18.90;99.90;;;;;;5093247;28;20633;-65
2022/09/06 02:57:24;;;;;;;5.32;4.10;;;18.90;99.90;;;;;;5089416;28;20696;-65
2022/09/06 02:59:50;;;;;;;6.72;3.60;;;18.90;99.90;;;;;;5075314;28;20182;-65
2022/09/06 03:02:16;;;;;;;4.55;3.75;;;18.90;99.90;;;;;;5076506;28;20624;-65
2022/09/06 03:04:42;;;;;;;4.95;4.00;;;18.90;99.90;;;;;;5077116;28;20626;-65
2022/09/06 03:07:08;;;;;;;8.45;3.80;;;18.90;99.90;;;;;;5092100;28;20254;-65
2022/09/06 03:09:34;;;;;;;5.25;3.60;;;18.90;99.90;;;;;;5097264;28;20188;-65
2022/09/06 03:12:00;;;;;;;4.35;3.65;;;18.90;99.90;;;;;;5095203;28;20189;-65
2022/09/06 03:14:25;;;;;;;5.47;3.70;;;18.90;99.90;;;;;;5096655;28;20180;-65
2022/09/06 03:16:51;;;;;;;5.82;3.45;;;18.90;99.90;;;;;;5095374;28;20287;-65
2022/09/06 03:19:18;;;;;;;5.40;3.78;;;18.90;99.90;;;;;;5097083;28;20251;-65
2022/09/06 03:21:44;;;;;;;4.20;3.33;;;18.90;99.90;;;;;;5097060;28;20276;-65
2022/09/06 03:24:10;;;;;;;6.90;3.72;;;18.90;99.90;;;;;;5095252;28;20201;-65
2022/09/06 03:26:36;;;;;;;7.28;3.83;;;18.90;99.90;;;;;;5096062;28;20722;-65
2022/09/06 03:29:01;;;;;;;9.68;3.67;;;18.80;99.90;;;;;;5075793;28;20645;-65
2022/09/06 03:31:27;;;;;;;7.15;3.90;;;18.80;99.90;;;;;;5075861;28;20223;-66
2022/09/06 03:33:53;;;;;;;5.43;3.58;;;18.80;99.90;;;;;;5074928;28;20201;-65
2022/09/06 03:36:19;;;;;;;8.52;3.70;;;18.70;99.90;;;;;;5084251;28;20180;-65
2022/09/06 03:38:45;;;;;;;8.80;3.90;;;18.70;99.90;;;;;;5096564;28;20173;-65
2022/09/06 03:41:10;;;;;;;8.02;4.03;;;18.60;99.90;;;;;;5094857;28;20197;-65
2022/09/06 03:43:36;;;;;;;6.15;3.58;;;18.60;99.90;;;;;;5095752;28;20197;-64
2022/09/06 03:46:02;;;;;;;4.40;3.63;;;18.50;99.90;;;;;;5095973;28;20177;-65
2022/09/06 03:48:29;;;;;;;6.32;3.95;;;18.50;99.90;;;;;;5094764;28;20197;-65
2022/09/06 03:50:57;;;;;;;6.63;4.00;;;18.50;99.90;;;;;;5095077;28;20177;-65
2022/09/06 03:53:25;;;;;;;5.13;3.70;;;18.50;99.90;;;;;;5095859;28;20174;-65
2022/09/06 03:55:52;;;;;;;6.93;3.95;;;18.50;99.90;;;;;;5095814;28;20173;-65
2022/09/06 03:58:21;;;;;;;4.63;3.63;;;18.50;99.90;;;;;;5079491;28;20206;-65
2022/09/06 04:00:47;;;;;;;6.38;4.18;;;18.50;99.90;;;;;;5075430;28;20174;-65
2022/09/06 04:03:13;;;;;;;4.68;3.50;;;18.50;99.90;;;;;;5075215;28;20233;-65
2022/09/06 04:05:43;;;;;;;5.88;3.40;;;18.50;99.90;;;;;;5077029;28;20188;-66
2022/09/06 04:08:09;;;;;;;4.32;3.22;;;18.50;99.90;;;;;;5093607;28;20237;-66
2022/09/06 04:10:34;;;;;;;5.43;3.80;;;18.50;99.90;;;;;;5095674;28;20252;-66
2022/09/06 04:13:00;;;;;;;5.15;3.50;;;18.40;99.90;;;;;;5095512;28;20308;-65
2022/09/06 04:15:26;;;;;;;5.43;3.58;;;18.40;99.90;;;;;;5095616;28;20176;-66
2022/09/06 04:17:52;;;;;;;5.75;3.55;;;18.50;99.90;;;;;;5095666;28;20234;-66
2022/09/06 04:20:18;;;;;;;4.47;3.65;;;18.50;99.90;;;;;;5095180;28;20585;-66
2022/09/06 04:22:43;;;;;;;5.68;3.80;;;18.50;99.90;;;;;;5095413;28;20197;-66
2022/09/06 04:25:09;;;;;;;5.40;4.05;;;18.50;99.90;;;;;;5093783;28;20582;-66
2022/09/06 04:27:35;;;;;;;5.78;3.97;;;18.50;99.90;;;;;;5086020;28;20561;-66
2022/09/06 04:30:01;;;;;;;5.35;3.95;;;18.50;99.90;;;;;;5074774;28;20170;-66
2022/09/06 04:32:27;;;;;;;5.18;3.58;;;18.50;99.90;;;;;;5074795;28;20208;-66
2022/09/06 04:34:53;;;;;;;5.15;3.92;;;18.50;99.90;;;;;;5074934;28;20181;-65
2022/09/06 04:37:18;;;;;;;6.40;3.50;;;18.50;99.90;;;;;;5090125;28;20201;-66
2022/09/06 04:39:47;;;;;;;6.97;3.80;;;18.60;99.90;;;;;;5094883;28;20185;-66
2022/09/06 04:42:13;;;;;;;6.00;3.47;;;18.60;99.90;;;;;;5093177;28;20253;-66
2022/09/06 04:44:39;;;;;;;5.57;3.67;;;18.60;99.90;;;;;;5094785;28;20249;-65
2022/09/06 04:47:11;;;;;;;6.25;3.70;;;18.60;99.90;;;;;;5094764;28;20263;-65
2022/09/06 04:49:37;;;;;;;4.07;3.33;;;18.60;99.90;;;;;;5095079;28;20489;-66
2022/09/06 04:52:03;;;;;;;4.78;3.60;;;18.60;99.90;;;;;;5094792;28;20172;-65
2022/09/06 04:54:29;;;;;;;6.78;3.78;;;18.70;99.90;;;;;;5094661;28;20179;-65
2022/09/06 04:56:54;;;;;;;7.90;3.58;;;18.70;99.90;;;;;;5092310;28;20594;-66
2022/09/06 04:59:20;;;;;;;6.63;3.63;;;18.70;99.90;;;;;;5074133;28;20178;-65
2022/09/06 05:01:46;;;;;;;6.18;4.00;;;18.70;99.90;;;;;;5074638;28;20209;-66
2022/09/06 05:04:11;;;;;;;6.75;3.70;;;18.70;99.90;;;;;;5074682;28;20249;-66
2022/09/06 05:06:38;;;;;;;6.80;3.58;;;18.70;99.90;;;;;;5085241;28;20205;-65
2022/09/06 05:09:04;;;;;;;7.68;4.32;;;18.70;99.90;;;;;;5094347;28;20165;-65
2022/09/06 05:11:30;;;;;;;8.50;4.88;;;18.70;99.90;;;;;;5094266;28;20169;-66
2022/09/06 05:13:59;;;;;;;5.90;3.85;;;18.70;99.90;;;;;;5095501;28;20272;-67
2022/09/06 05:16:25;;;;;;;9.15;4.63;;;18.70;99.90;;;;;;5095693;28;20172;-66
2022/09/06 05:18:51;;;;;;;7.07;4.38;;;18.70;99.90;;;;;;5092734;28;20169;-66
2022/09/06 05:21:17;;;;;;;9.40;4.65;;;18.70;99.90;;;;;;5094782;28;20260;-66
2022/09/06 05:23:43;;;;;;;6.05;4.38;;;18.70;99.90;;;;;;5094703;28;20530;-66
2022/09/06 05:26:08;;;;;;;8.02;4.57;;;18.70;99.90;;;;;;5094127;28;20192;-66
2022/09/06 05:28:34;;;;;;;8.93;4.63;;;18.70;99.90;;;;;;5075845;28;20206;-66
2022/09/06 05:31:24;;;;;;;8.98;4.50;;;18.70;99.90;;;;;;5073792;28;20642;-66
2022/09/06 05:33:52;;;;;;;9.77;4.57;;;18.70;99.90;;;;;;5054206;28;20171;-69
2022/09/06 05:36:17;;;;;;;9.98;4.75;;;18.70;99.90;;;;;;5070107;28;20192;-69
2022/09/06 05:38:43;;;;;;;9.80;4.57;;;18.70;99.90;;;;;;5094237;28;20185;-69
2022/09/06 05:41:09;;;;;;;7.43;4.47;;;18.60;99.90;;;;;;5093136;28;20276;-69
2022/09/06 05:43:34;;;;;;;6.03;3.60;;;18.60;99.90;;;;;;5094122;28;20570;-69
2022/09/06 05:46:00;;;;;;;6.22;3.70;;;18.60;99.90;;;;;;5093277;28;20185;-69
2022/09/06 05:48:26;;;;;;;8.35;3.53;;;18.60;99.90;;;;;;5094059;28;20193;-68
2022/09/06 05:51:07;;;;;;;8.18;4.15;;;18.60;99.90;;;;;;5094088;28;20165;-68
2022/09/06 05:53:35;;;;;;;5.00;3.72;;;18.60;99.90;;;;;;5093904;28;20640;-68
2022/09/06 05:56:01;;;;;;;4.38;3.35;;;18.60;99.90;;;;;;5094033;28;20657;-69
2022/09/06 05:58:26;;;;;;;6.22;3.70;;;18.60;99.90;;;;;;5076270;28;20277;-69
2022/09/06 06:01:18;;;;;;;5.38;3.83;;;18.60;99.90;;;;;;5073720;28;20173;-69
2022/09/06 06:04:03;;;;;;;5.00;3.47;;;18.70;99.90;;;;;;5052667;28;20570;-68
2022/09/06 06:06:31;;;;;;;8.82;4.15;;;18.70;99.90;;;;;;5072067;28;20271;-68
2022/09/06 06:08:58;;;;;;;11.63;4.28;;;18.80;99.90;;;;;;5093453;28;20172;-68
2022/09/06 06:11:25;;;;;;;5.82;3.58;;;18.70;99.90;;;;;;5092795;28;20185;-68
2022/09/06 06:13:51;;;;;;;5.95;3.35;;;18.80;99.90;;;;;;5094462;28;20172;-68
2022/09/06 06:16:19;;;;;;;7.70;4.03;;;18.80;99.90;;;;;;5092628;28;20235;-68
2022/09/06 06:18:45;;;;;;;10.90;4.60;;;18.80;99.90;;;;;;5092737;28;20187;-68
2022/09/06 06:21:16;;;;;;;7.07;4.05;;;18.70;99.90;;;;;;5094467;28;20226;-68
2022/09/06 06:23:43;;;;;;;9.77;4.20;;;18.70;99.90;;;;;;5094246;28;20197;-68
2022/09/06 06:26:10;;;;;;;6.88;4.05;;;18.70;99.90;;;;;;5094364;28;20237;-67
2022/09/06 06:28:37;;;;;;;6.90;3.83;;;18.80;99.90;;;;;;5075841;28;20205;-68
2022/09/06 06:31:04;;;;;;;8.68;3.83;;;18.80;99.90;;;;;;5074623;28;20173;-69
2022/09/06 06:33:31;;;;;;;6.53;3.42;;;18.80;99.90;;;;;;5076389;28;20193;-68
2022/09/06 06:36:04;;;;;;;5.68;3.63;;;18.90;99.90;;;;;;5082753;28;20185;-68
2022/09/06 06:38:40;;;;;;;6.07;3.63;;;18.90;99.90;;;;;;5097832;28;20193;-68
2022/09/06 06:41:08;;;;;;;5.25;3.65;;;19.00;99.90;;;;;;5097299;28;20188;-69
2022/09/06 06:43:37;;;;;;;5.60;3.53;;;19.00;99.90;;;;;;5096882;28;20681;-69
2022/09/06 06:46:05;;;;;;;6.30;3.72;;;19.10;99.90;;;;;;5097126;28;20173;-69
2022/09/06 06:48:31;;;;;;;5.68;3.85;;;19.20;99.90;;;;;;5097207;28;20189;-69
2022/09/06 06:50:57;;;;;;;6.60;3.40;;;19.30;99.90;;;;;;5095951;28;20646;-69
2022/09/06 06:53:23;;;;;;;3.78;3.22;;;19.40;99.90;;;;;;5097357;28;20565;-68
2022/09/06 06:55:49;;;;;;;8.50;4.00;;;19.50;99.90;;;;;;5095657;28;20173;-68
2022/09/06 06:58:15;;;;;;;4.80;3.30;;;19.60;99.90;;;;;;5082298;28;20259;-69
2022/09/06 07:00:42;;;;;;;6.03;3.33;;;19.70;99.90;;;;;;5076518;28;20547;-69
2022/09/06 07:03:09;;;;;;;4.57;3.35;;;19.90;99.90;;;;;;5059902;28;20609;-69
2022/09/06 07:05:35;;;;;;;10.05;3.80;;;20.00;99.90;;;;;;5056454;28;20217;-69
2022/09/06 07:08:01;;;;;;;3.47;2.92;;;20.10;99.90;;;;;;5055071;28;20204;-69
2022/09/06 07:10:27;;;;;;;4.22;3.10;;;20.30;99.90;;;;;;5056425;28;20639;-69
2022/09/06 07:12:53;;;;;;;4.95;3.30;;;20.40;99.90;;;;;;5056331;28;20204;-69
2022/09/06 07:15:19;;;;;;;7.95;3.60;;;20.50;99.90;;;;;;5056313;28;20533;-69
2022/09/06 07:17:45;;;;;;;5.40;3.53;;;20.60;99.90;;;;;;5056209;28;20198;-69
2022/09/06 07:20:10;;;;;;;6.80;3.88;;;20.80;99.90;;;;;;5056643;28;20178;-69
2022/09/06 07:22:37;;;;;;;4.18;3.47;;;20.90;99.90;;;;;;5054761;28;20209;-69
2022/09/06 07:25:04;;;;;;;5.93;3.50;;;21.00;99.90;;;;;;5054785;28;20197;-69
2022/09/06 07:27:30;;;;;;;5.28;3.25;;;21.10;99.90;;;;;;5054623;28;20336;-69
2022/09/06 07:29:55;;;;;;;4.18;3.38;;;21.20;99.90;;;;;;5056040;28;20666;-69
2022/09/06 07:32:21;;;;;;;4.75;3.08;;;21.30;99.90;;;;;;5064676;28;20177;-69
2022/09/06 07:34:47;;;;;;;3.75;2.90;;;21.40;99.90;;;;;;5076247;28;20174;-69
2022/09/06 07:37:14;;;;;;;4.80;3.00;;;21.60;99.90;;;;;;5091641;28;20663;-69
2022/09/06 07:39:40;;;;;;;8.57;3.42;;;21.70;99.90;;;;;;5094592;28;20196;-69
2022/09/06 07:42:06;;;;;;;5.35;3.22;;;21.80;99.90;;;;;;5093741;28;20201;-69
2022/09/06 07:44:32;;;;;;;4.07;3.03;;;21.90;99.90;;;;;;5095764;28;20177;-69
2022/09/06 07:47:01;;;;;;;3.72;2.58;;;22.10;99.90;;;;;;5095956;28;20189;-69
2022/09/06 07:49:27;;;;;;;5.45;2.80;;;22.20;99.90;;;;;;5094656;28;20182;-69
2022/09/06 07:51:53;;;;;;;4.40;2.65;;;22.30;99.90;;;;;;5095749;28;20645;-69
2022/09/06 07:54:20;;;;;;;5.43;2.60;;;22.50;99.90;;;;;;5094477;28;20184;-69
2022/09/06 07:56:46;;;;;;;5.03;2.47;;;22.60;99.90;;;;;;5093905;28;20559;-69
2022/09/06 07:59:12;;;;;;;4.13;2.58;;;22.90;99.90;;;;;;5075254;28;20176;-69
2022/09/06 08:01:38;;;;;;;5.40;2.40;;;23.00;99.90;;;;;;5071326;28;20673;-69
2022/09/06 08:04:09;;;;;;;5.03;2.30;;;23.10;99.90;;;;;;5054014;28;20178;-69
2022/09/06 08:06:43;;;;;;;2.53;2.10;;;23.30;99.90;;;;;;5075341;28;20228;-69
2022/09/06 08:09:10;;;;;;;3.45;1.85;;;23.50;99.90;;;;;;5096208;28;20202;-69
2022/09/06 08:11:37;;;;;;;4.53;2.25;;;23.60;99.90;;;;;;5095818;28;20173;-69
2022/09/06 08:14:05;;;;;;;2.97;1.90;;;23.70;99.90;;;;;;5095656;28;20636;-69
2022/09/06 08:16:32;;;;;;;2.70;1.90;;;23.80;99.90;;;;;;5095489;28;20223;-70
2022/09/06 08:19:01;;;;;;;2.03;1.77;;;23.90;99.90;;;;;;5093953;28;20580;-70
2022/09/06 08:21:31;;;;;;;5.60;2.47;;;24.00;99.90;;;;;;5094102;28;20180;-69
2022/09/06 08:23:59;;;;;;;2.30;1.73;;;24.10;99.90;;;;;;5094985;28;20275;-69
2022/09/06 08:26:27;;;;;;;1.95;1.80;;;24.20;99.90;;;;;;5094865;28;20170;-69
2022/09/06 08:28:54;;;;;;;2.05;1.52;;;24.40;99.90;;;;;;5074245;28;20182;-69
2022/09/06 08:31:21;;;;;;;3.92;1.90;;;24.60;99.90;;;;;;5074250;28;20231;-69
2022/09/06 08:33:46;;;;;;;3.70;1.70;;;24.70;99.90;;;;;;5055396;28;20178;-69
2022/09/06 08:36:16;;;;;;;2.30;1.80;;;24.90;99.90;;;;;;5069688;28;20192;-68
2022/09/06 08:38:41;;;;;;;4.15;1.92;;;25.00;99.90;;;;;;5095169;28;20186;-68
2022/09/06 08:41:13;;;;;;;4.78;1.98;;;25.10;99.90;;;;;;5095621;28;20184;-70
2022/09/06 08:43:51;;;;;;;4.88;1.73;;;25.10;99.90;;;;;;5094776;28;20322;-68
2022/09/06 08:46:18;;;;;;;4.72;1.90;;;25.10;99.90;;;;;;5093538;28;20157;-68
2022/09/06 08:48:44;;;;;;;2.65;1.88;;;25.20;99.90;;;;;;5095308;28;20234;-69
2022/09/06 08:51:47;;;;;;;3.88;1.90;;;25.30;99.90;;;;;;5095610;28;20181;-68
2022/09/06 08:54:50;;;;;;;1.95;1.60;;;25.40;99.90;;;;;;5095167;28;20240;-69
2022/09/06 08:57:44;;;;;;;4.18;1.73;;;25.50;99.90;;;;;;5089868;28;20662;-67
2022/09/06 09:00:12;;;;;;;3.58;2.55;;;25.70;99.90;;;;;;5075635;28;20170;-68
2022/09/06 09:02:55;;;;;;;3.17;1.80;;;25.80;99.90;;;;;;5073326;28;20327;-67
2022/09/06 09:05:29;;;;;;;3.92;1.73;;;25.90;99.90;;;;;;5075241;28;20245;-67
2022/09/06 09:08:06;;;;;;;2.53;1.65;;;26.10;99.90;;;;;;5095310;28;20754;-70
2022/09/06 09:10:43;;;;;;;1.58;1.48;;;26.30;99.90;;;;;;5093432;28;20161;-66
2022/09/06 09:13:30;;;;;;;2.35;1.80;;;26.50;99.90;;;;;;5094513;28;20172;-67
2022/09/06 09:15:56;;;;;;;3.60;1.80;;;26.50;99.90;;;;;;5094511;28;20584;-67
2022/09/06 09:18:26;;;;;;;2.72;1.80;;;26.60;99.90;;;;;;5093810;28;20291;-69
2022/09/06 09:20:52;;;;;;;2.83;1.80;;;26.60;99.90;;;;;;5092792;28;20177;-69
2022/09/06 09:23:18;;;;;;;1.92;1.58;;;26.70;99.90;;;;;;5095028;28;20543;-69
2022/09/06 09:25:45;;;;;;;2.65;1.80;;;26.90;99.90;;;;;;5094098;28;20240;-69
2022/09/06 09:28:21;;;;;;;2.95;1.60;;;26.90;99.90;;;;;;5078842;28;20231;-69
2022/09/06 09:30:52;;;;;;;2.78;1.50;;;27.10;99.90;;;;;;5072451;28;20653;-69
2022/09/06 09:33:24;;;;;;;1.88;1.67;;;27.20;99.90;;;;;;5055479;28;20191;-69
2022/09/06 09:35:50;;;;;;;1.77;1.58;;;27.10;99.90;;;;;;5062317;28;20655;-69
2022/09/06 09:38:26;;;;;;;2.80;1.48;;;27.20;99.90;;;;;;5094266;28;20200;-69
2022/09/06 09:41:04;;;;;;;1.50;1.40;;;27.30;99.90;;;;;;5092399;28;20203;-69
2022/09/06 09:43:38;;;;;;;2.53;1.40;;;27.30;99.90;;;;;;5092252;28;20200;-69
2022/09/06 09:46:10;;;;;;;2.83;1.42;;;27.30;99.90;;;;;;5094075;28;20614;-68
2022/09/06 09:48:36;;;;;;;1.88;1.58;;;27.30;99.90;;;;;;5093663;28;20279;-68
2022/09/06 09:51:23;;;;;;;1.60;1.50;;;27.30;99.90;;;;;;5094651;28;20212;-71
2022/09/06 09:53:59;;;;;;;5.93;1.65;;;27.30;99.90;;;;;;5094105;28;20177;-71
2022/09/06 09:56:32;;;;;;;3.78;1.42;;;27.30;99.90;;;;;;5093318;28;20179;-69
2022/09/06 09:58:58;;;;;;;1.48;1.35;;;27.30;99.90;;;;;;5073395;28;20185;-69
2022/09/06 10:01:34;;;;;;;4.95;1.58;;;27.40;99.90;;;;;;5072820;28;20213;-69
2022/09/06 10:04:06;;;;;;;2.00;1.35;;;27.40;99.90;;;;;;5073526;28;20189;-69
2022/09/06 10:06:32;;;;;;;1.35;1.25;;;27.40;99.90;;;;;;5083666;28;20263;-70
2022/09/06 10:08:58;;;;;;;2.25;1.50;;;27.50;99.90;;;;;;5094174;28;20162;-69
2022/09/06 10:11:45;;;;;;;1.33;1.20;;;27.50;99.90;;;;;;5093572;28;20252;-70
2022/09/06 10:14:22;;;;;;;2.38;1.58;;;27.50;99.90;;;;;;5093199;28;20183;-70
2022/09/06 10:16:50;;;;;;;3.08;1.52;;;27.40;99.90;;;;;;5092265;28;20204;-70
2022/09/06 10:19:23;;;;;;;3.05;1.60;;;27.40;99.90;;;;;;5093537;28;20166;-70
2022/09/06 10:21:55;;;;;;;1.80;1.38;;;27.50;99.90;;;;;;5093885;28;20622;-71
2022/09/06 10:24:39;;;;;;;2.20;1.55;;;27.50;99.90;;;;;;5093769;28;20711;-70
2022/09/06 10:27:06;;;;;;;1.40;1.25;;;27.50;99.90;;;;;;5087940;28;20207;-70
2022/09/06 10:29:55;;;;;;;2.88;1.50;;;27.60;99.90;;;;;;5071597;28;20174;-69
2022/09/06 10:32:27;;;;;;;1.55;1.40;;;27.50;99.90;;;;;;5072069;28;20246;-69
2022/09/06 10:35:08;;;;;;;2.85;1.48;;;27.50;99.90;;;;;;5073144;28;20174;-69
2022/09/06 10:38:07;;;;;;;2.65;1.50;;;27.60;99.90;;;;;;5091929;28;20204;-69
2022/09/06 10:41:08;;;;;;;2.42;1.40;;;27.60;99.90;;;;;;5093209;28;20193;-70
2022/09/06 10:44:10;;;;;;;5.40;1.55;;;27.70;99.90;;;;;;5092860;28;20193;-69
2022/09/06 10:46:38;;;;;;;3.47;1.40;;;27.70;99.90;;;;;;5093734;28;20552;-70
2022/09/06 10:49:09;;;;;;;2.08;1.50;;;27.70;99.90;;;;;;5093146;28;20169;-69
2022/09/06 10:51:48;;;;;;;2.70;1.50;;;27.90;99.90;;;;;;5093427;28;20154;-69
2022/09/06 10:54:18;;;;;;;2.50;1.50;;;28.00;99.90;;;;;;5093043;28;20161;-69
2022/09/06 10:57:10;;;;;;;2.38;1.38;;;28.10;99.90;;;;;;5091974;28;20190;-69
2022/09/06 11:00:13;;;;;;;2.63;1.38;;;28.20;99.90;;;;;;5071385;28;20174;-69
2022/09/06 11:02:50;;;;;;;3.80;1.60;;;28.40;99.90;;;;;;5072828;28;20201;-69
2022/09/06 11:05:19;;;;;;;1.85;1.67;;;28.60;99.90;;;;;;5072933;28;20192;-69
2022/09/06 11:08:04;;;;;;;1.50;1.40;;;28.70;99.90;;;;;;5052760;28;20198;-69
2022/09/06 11:10:32;;;;;;;3.17;1.38;;;28.80;99.90;;;;;;5052743;28;20180;-69
2022/09/06 11:13:15;;;;;;;3.20;1.40;;;29.00;99.90;;;;;;5051358;28;20185;-70
2022/09/06 11:16:03;;;;;;;2.88;1.52;;;29.10;99.90;;;;;;5052503;28;20163;-70
2022/09/06 11:18:46;;;;;;;1.90;1.55;;;29.30;99.90;;;;;;5053563;28;20194;-70
2022/09/06 11:21:40;;;;;;;3.55;1.70;;;29.50;99.90;;;;;;5056377;28;20167;-70
2022/09/06 11:24:12;;;;;;;1.42;1.33;;;29.50;99.90;;;;;;5056306;28;20178;-69
2022/09/06 11:26:57;;;;;;;3.55;1.35;;;29.50;99.90;;;;;;5056767;28;20194;-70
2022/09/06 11:29:26;;;;;;;1.65;1.55;;;29.60;99.90;;;;;;5075892;28;20634;-70
2022/09/06 11:32:00;;;;;;;2.60;1.50;;;29.60;99.90;;;;;;5076273;28;20186;-70
2022/09/06 11:34:27;;;;;;;4.78;1.48;;;29.50;99.90;;;;;;5076583;28;20155;-69
2022/09/06 11:37:03;;;;;;;1.77;1.30;;;29.60;99.90;;;;;;5090074;28;20197;-70
2022/09/06 11:39:41;;;;;;;2.20;1.30;;;29.70;99.90;;;;;;5095609;28;20193;-70
2022/09/06 11:42:45;;;;;;;2.75;1.40;;;29.70;99.90;;;;;;5096958;28;20201;-70
2022/09/06 11:45:10;;;;;;;1.58;1.48;;;29.70;99.90;;;;;;5094251;28;20184;-70
2022/09/06 11:47:40;;;;;;;2.10;1.40;;;30.00;99.90;;;;;;5094989;28;20541;-70
2022/09/06 11:50:24;;;;;;;4.68;1.60;;;30.10;99.90;;;;;;5095092;28;20173;-70
2022/09/06 11:53:05;;;;;;;4.30;1.45;;;30.10;99.90;;;;;;5096611;28;20302;-70
2022/09/06 11:55:40;;;;;;;2.97;1.67;;;30.20;99.90;;;;;;5096422;28;20178;-70
2022/09/06 11:58:21;;;;;;;2.90;1.50;;;30.50;99.90;;;;;;5081948;28;20208;-70
2022/09/06 12:01:12;;;;;;;4.65;1.60;;;30.70;99.90;;;;;;5074254;28;20185;-70
2022/09/06 12:03:47;;;;;;;2.10;1.45;;;30.90;99.90;;;;;;5075682;28;20205;-70
2022/09/06 12:06:21;;;;;;;2.03;1.77;;;31.20;99.90;;;;;;5081856;28;20176;-70
2022/09/06 12:08:51;;;;;;;2.25;1.38;;;31.30;99.90;;;;;;5095922;28;20225;-70
2022/09/06 12:11:27;;;;;;;2.45;1.40;;;31.40;99.90;;;;;;5095952;28;20188;-70
2022/09/06 12:14:30;;;;;;;2.63;1.70;;;31.30;99.90;;;;;;5095698;28;20164;-70
2022/09/06 12:17:03;;;;;;;1.88;1.60;;;31.40;99.90;;;;;;5094470;28;20200;-70
2022/09/06 12:19:47;;;;;;;2.08;1.30;;;31.40;99.90;;;;;;5095639;28;20687;-70
2022/09/06 12:22:28;;;;;;;3.08;1.67;;;31.40;99.90;;;;;;5094301;28;20295;-70
2022/09/06 12:25:08;;;;;;;2.28;1.80;;;31.40;99.90;;;;;;5095428;28;20632;-70
2022/09/06 12:27:49;;;;;;;2.60;1.63;;;31.40;99.90;;;;;;5087333;28;20275;-70
2022/09/06 12:30:34;;;;;;;3.97;2.42;;;31.40;99.90;;;;;;5074874;28;20186;-70
2022/09/06 12:33:06;;;;;;;3.78;1.67;;;31.40;99.90;;;;;;5075311;28;20193;-70
2022/09/06 12:35:33;;;;;;;2.28;1.60;;;31.30;99.90;;;;;;5077502;28;20666;-70
2022/09/06 12:38:01;;;;;;;3.03;1.85;;;31.50;99.90;;;;;;5095649;28;20199;-70
2022/09/06 12:40:34;;;;;;;3.83;1.85;;;31.70;99.90;;;;;;5095582;28;20189;-70
2022/09/06 12:43:03;;;;;;;3.70;2.08;;;32.00;99.90;;;;;;5095474;28;20607;-69
2022/09/06 12:45:29;;;;;;;3.30;1.67;;;31.70;99.90;;;;;;5095102;28;20177;-70
2022/09/06 12:48:10;;;;;;;4.57;2.08;;;31.60;99.90;;;;;;5093727;28;20246;-70
2022/09/06 12:50:37;;;;;;;2.47;1.77;;;31.70;99.90;;;;;;5093758;28;20588;-70
2022/09/06 12:53:17;;;;;;;2.95;1.60;;;31.80;99.90;;;;;;5093624;28;20183;-70
2022/09/06 12:55:43;;;;;;;3.20;1.98;;;31.30;99.90;;;;;;5095139;28;20165;-70
2022/09/06 12:58:11;;;;;;;8.35;2.22;;;31.50;99.90;;;;;;5080031;28;20271;-70
2022/09/06 13:00:46;;;;;;;4.95;1.85;;;31.30;99.90;;;;;;5074474;28;20174;-70
2022/09/06 13:03:26;;;;;;;9.93;1.90;;;31.30;99.90;;;;;;5073125;28;20212;-70
2022/09/06 13:05:55;;;;;;;6.35;1.55;;;31.30;99.90;;;;;;5078902;28;20222;-70